Time;durP1;ratioP1;P1;durP2;ratioP2;P2;SDS_P1;SDS_P2;PMS_P1;PMS_P2;Temp;Humidity;BMP_temperature;BMP_pressure;BME280_temperature;BME280_humidity;BME280_pressure;Samples;Min_cycle;Max_cycle;Signal;HPM_P1;HPM_P2
2023/03/17 00:01:08;;;;;;;5.95;2.40;;;9.20;99.90;;;;;;5003452;28;20055;-61
2023/03/17 00:03:40;;;;;;;3.80;2.22;;;9.10;99.90;;;;;;5005008;28;20425;-62
2023/03/17 00:06:14;;;;;;;5.63;2.40;;;9.20;99.90;;;;;;5000266;28;20100;-61
2023/03/17 00:08:41;;;;;;;5.50;2.30;;;9.10;99.90;;;;;;5000986;28;20041;-64
2023/03/17 00:11:12;;;;;;;4.03;2.20;;;9.10;99.90;;;;;;5002490;28;20038;-61
2023/03/17 00:13:38;;;;;;;4.93;2.38;;;9.10;99.90;;;;;;5004430;28;20045;-62
2023/03/17 00:16:11;;;;;;;2.65;2.00;;;9.00;99.90;;;;;;5003703;28;20034;-61
2023/03/17 00:18:37;;;;;;;4.38;2.40;;;9.10;99.90;;;;;;5004310;28;20052;-62
2023/03/17 00:21:03;;;;;;;3.80;2.10;;;9.10;99.90;;;;;;5003450;28;20086;-61
2023/03/17 00:23:29;;;;;;;4.68;2.30;;;9.00;99.90;;;;;;5003727;28;20411;-62
2023/03/17 00:25:56;;;;;;;6.25;2.45;;;9.10;99.90;;;;;;4984195;28;20037;-62
2023/03/17 00:28:23;;;;;;;5.80;2.25;;;9.00;99.90;;;;;;5003913;28;20048;-62
2023/03/17 00:30:53;;;;;;;4.70;2.63;;;9.10;99.90;;;;;;5007394;28;20062;-62
2023/03/17 00:33:32;;;;;;;3.85;2.13;;;9.10;99.90;;;;;;5002722;28;20034;-62
2023/03/17 00:35:58;;;;;;;2.70;2.03;;;8.90;99.90;;;;;;4984290;28;20053;-62
2023/03/17 00:38:24;;;;;;;5.57;2.45;;;8.90;99.90;;;;;;5003382;28;20403;-62
2023/03/17 00:40:50;;;;;;;4.40;2.10;;;9.00;99.90;;;;;;5002910;28;20041;-62
2023/03/17 00:43:16;;;;;;;4.57;2.40;;;9.00;99.90;;;;;;5000319;28;20030;-62
2023/03/17 00:45:43;;;;;;;4.72;2.30;;;9.00;99.90;;;;;;4998975;28;20042;-62
2023/03/17 00:48:28;;;;;;;2.72;2.13;;;9.00;99.90;;;;;;5003330;28;20033;-61
2023/03/17 00:50:54;;;;;;;6.00;2.58;;;9.00;99.90;;;;;;5003469;28;20156;-62
2023/03/17 00:53:20;;;;;;;3.33;2.22;;;9.00;99.90;;;;;;5002692;28;20048;-62
2023/03/17 00:55:47;;;;;;;4.30;2.15;;;8.90;99.90;;;;;;5002675;28;20033;-63
2023/03/17 00:58:22;;;;;;;5.15;2.55;;;8.90;99.90;;;;;;5003263;28;20033;-62
2023/03/17 01:00:48;;;;;;;4.72;2.40;;;8.90;99.90;;;;;;5003097;28;20466;-62
2023/03/17 01:03:14;;;;;;;3.95;2.50;;;8.90;99.90;;;;;;5003099;28;20041;-62
2023/03/17 01:05:40;;;;;;;4.30;2.33;;;9.00;99.90;;;;;;5002901;28;20511;-62
2023/03/17 01:08:08;;;;;;;3.50;2.40;;;9.00;99.90;;;;;;4997031;28;20040;-62
2023/03/17 01:10:33;;;;;;;5.85;1.95;;;9.00;99.90;;;;;;5002164;28;20409;-62
2023/03/17 01:12:59;;;;;;;6.07;2.80;;;9.00;99.90;;;;;;5003481;28;20043;-62
2023/03/17 01:15:30;;;;;;;5.47;2.55;;;9.00;99.90;;;;;;5002593;28;20041;-62
2023/03/17 01:17:57;;;;;;;4.10;2.40;;;9.00;99.90;;;;;;5002949;28;20026;-62
2023/03/17 01:20:28;;;;;;;8.88;2.58;;;9.00;99.90;;;;;;4997333;28;20033;-62
2023/03/17 01:22:54;;;;;;;4.88;2.42;;;9.00;99.90;;;;;;5003795;28;20030;-62
2023/03/17 01:25:20;;;;;;;4.40;2.53;;;8.90;99.90;;;;;;5000647;28;20092;-62
2023/03/17 01:27:47;;;;;;;4.72;2.38;;;8.90;99.90;;;;;;5001347;28;20516;-62
2023/03/17 01:30:19;;;;;;;3.97;2.60;;;8.90;99.90;;;;;;5003890;28;20096;-62
2023/03/17 01:32:45;;;;;;;3.78;2.25;;;8.90;99.90;;;;;;4995668;28;20035;-63
2023/03/17 01:35:11;;;;;;;4.50;2.30;;;8.90;99.90;;;;;;5002719;28;20513;-62
2023/03/17 01:37:38;;;;;;;3.22;2.20;;;8.80;99.90;;;;;;5002274;28;20523;-62
2023/03/17 01:40:06;;;;;;;5.00;2.67;;;8.80;99.90;;;;;;5001300;28;20114;-61
2023/03/17 01:42:32;;;;;;;5.97;2.42;;;8.80;99.90;;;;;;5003438;28;20038;-62
2023/03/17 01:45:02;;;;;;;3.58;2.10;;;8.80;99.90;;;;;;4985323;28;20040;-62
2023/03/17 01:47:31;;;;;;;4.57;2.28;;;8.80;99.90;;;;;;5002655;28;20030;-62
2023/03/17 01:50:09;;;;;;;7.18;2.53;;;8.90;99.90;;;;;;5002454;28;20049;-64
2023/03/17 01:52:37;;;;;;;4.78;2.28;;;8.90;99.90;;;;;;4996136;28;20452;-62
2023/03/17 01:55:10;;;;;;;4.28;2.13;;;8.80;99.90;;;;;;4979277;28;20030;-61
2023/03/17 01:57:38;;;;;;;;;;;8.90;99.90;;;;;;5003730;28;20038;-62
2023/03/17 02:00:08;;;;;;;5.05;2.60;;;8.90;99.90;;;;;;4996213;28;19910;-61
2023/03/17 02:02:37;;;;;;;3.92;2.60;;;8.90;99.90;;;;;;5002359;28;20038;-62
2023/03/17 02:05:05;;;;;;;4.47;2.25;;;8.90;99.90;;;;;;4997132;28;20413;-62
2023/03/17 02:07:31;;;;;;;3.35;2.40;;;8.80;99.90;;;;;;4997261;28;20022;-62
2023/03/17 02:09:57;;;;;;;3.30;2.00;;;8.80;99.90;;;;;;5001379;28;20033;-62
2023/03/17 02:12:29;;;;;;;3.70;2.15;;;8.80;99.90;;;;;;5002617;28;20339;-62
2023/03/17 02:14:55;;;;;;;5.95;2.50;;;8.80;99.90;;;;;;5003225;28;20118;-62
2023/03/17 02:17:23;;;;;;;4.03;2.30;;;8.70;99.90;;;;;;5001772;28;20034;-62
2023/03/17 02:19:50;;;;;;;4.53;2.05;;;8.80;99.90;;;;;;5005269;28;20052;-62
2023/03/17 02:22:18;;;;;;;7.43;2.63;;;8.70;99.90;;;;;;5005651;28;20053;-61
2023/03/17 02:24:51;;;;;;;4.18;2.03;;;8.60;99.90;;;;;;4987623;28;20033;-62
2023/03/17 02:27:40;;;;;;;4.63;2.17;;;8.60;99.90;;;;;;5004484;28;20488;-62
2023/03/17 02:30:07;;;;;;;6.72;1.98;;;8.70;99.90;;;;;;5004997;28;20034;-62
2023/03/17 02:32:35;;;;;;;4.15;1.90;;;8.60;99.90;;;;;;4991805;28;20136;-62
2023/03/17 02:35:01;;;;;;;4.93;2.03;;;8.60;99.90;;;;;;5005549;28;20030;-62
2023/03/17 02:37:27;;;;;;;3.28;2.25;;;8.50;99.90;;;;;;5006042;28;20353;-62
2023/03/17 02:39:53;;;;;;;4.47;2.13;;;8.50;99.90;;;;;;5004644;28;20130;-63
2023/03/17 02:42:19;;;;;;;6.55;2.45;;;8.60;99.90;;;;;;5006209;28;20088;-62
2023/03/17 02:44:45;;;;;;;4.88;2.20;;;8.60;99.90;;;;;;5005534;28;20092;-63
2023/03/17 02:47:11;;;;;;;3.85;2.30;;;8.50;99.90;;;;;;5005672;28;20038;-62
2023/03/17 02:49:39;;;;;;;5.90;2.25;;;8.50;99.90;;;;;;5005631;28;20030;-62
2023/03/17 02:52:06;;;;;;;6.35;2.10;;;8.50;99.90;;;;;;5001451;28;20239;-61
2023/03/17 02:54:32;;;;;;;3.40;2.03;;;8.50;99.90;;;;;;5004307;28;20029;-62
2023/03/17 02:56:58;;;;;;;4.85;2.13;;;8.40;99.90;;;;;;5005146;28;20036;-62
2023/03/17 02:59:24;;;;;;;3.38;2.00;;;8.40;99.90;;;;;;5005489;28;20088;-62
2023/03/17 03:01:50;;;;;;;5.63;2.53;;;8.40;99.90;;;;;;4992069;28;20034;-62
2023/03/17 03:04:17;;;;;;;3.42;2.08;;;8.30;99.90;;;;;;5005320;28;20068;-62
2023/03/17 03:06:44;;;;;;;5.22;2.60;;;8.30;99.90;;;;;;4986485;28;20042;-62
2023/03/17 03:09:10;;;;;;;4.93;2.45;;;8.30;99.90;;;;;;5004409;28;20163;-62
2023/03/17 03:11:37;;;;;;;4.55;2.10;;;8.30;99.90;;;;;;5005123;28;20065;-62
2023/03/17 03:14:02;;;;;;;3.75;1.98;;;8.30;99.90;;;;;;5005254;28;20034;-62
2023/03/17 03:16:28;;;;;;;2.92;2.20;;;8.30;99.90;;;;;;5005282;28;20057;-62
2023/03/17 03:18:54;;;;;;;3.90;2.33;;;8.40;99.90;;;;;;5005404;28;20042;-62
2023/03/17 03:21:20;;;;;;;4.93;2.15;;;8.40;99.90;;;;;;5004099;28;20406;-62
2023/03/17 03:23:46;;;;;;;3.55;2.00;;;8.40;99.90;;;;;;5005058;28;20038;-62
2023/03/17 03:26:12;;;;;;;5.63;2.50;;;8.30;99.90;;;;;;5002764;28;20846;-62
2023/03/17 03:28:37;;;;;;;5.13;2.53;;;8.30;99.90;;;;;;5005149;28;20146;-62
2023/03/17 03:31:03;;;;;;;4.28;2.08;;;8.30;99.90;;;;;;5008201;28;20452;-61
2023/03/17 03:33:29;;;;;;;5.07;2.42;;;8.20;99.90;;;;;;5004741;28;20396;-62
2023/03/17 03:35:54;;;;;;;4.13;2.10;;;8.30;99.90;;;;;;5004375;28;20117;-62
2023/03/17 03:38:20;;;;;;;4.75;2.30;;;8.30;99.90;;;;;;5003779;28;20049;-62
2023/03/17 03:40:46;;;;;;;2.97;2.08;;;8.30;99.90;;;;;;5003427;28;20029;-62
2023/03/17 03:43:12;;;;;;;4.68;2.33;;;8.30;99.90;;;;;;5004951;28;20124;-62
2023/03/17 03:45:37;;;;;;;4.13;2.55;;;8.20;99.90;;;;;;5005210;28;20038;-62
2023/03/17 03:48:03;;;;;;;4.97;2.42;;;8.30;99.90;;;;;;5004161;28;20044;-61
2023/03/17 03:50:30;;;;;;;4.15;2.25;;;8.30;99.90;;;;;;5004453;28;20034;-62
2023/03/17 03:52:56;;;;;;;4.93;2.20;;;8.30;99.90;;;;;;5004838;28;20147;-63
2023/03/17 03:55:22;;;;;;;5.40;2.30;;;8.30;99.90;;;;;;5002887;28;20038;-62
2023/03/17 03:57:47;;;;;;;3.42;1.98;;;8.20;99.90;;;;;;5004319;28;20041;-62
2023/03/17 04:00:13;;;;;;;6.70;2.85;;;8.20;99.90;;;;;;5003905;28;20030;-62
2023/03/17 04:02:40;;;;;;;3.85;2.30;;;8.20;99.90;;;;;;5003974;28;20042;-62
2023/03/17 04:05:08;;;;;;;4.85;2.33;;;8.30;99.90;;;;;;5004015;28;20026;-62
2023/03/17 04:07:35;;;;;;;3.22;2.20;;;8.30;99.90;;;;;;4998611;28;20709;-62
2023/03/17 04:10:01;;;;;;;3.65;2.28;;;8.30;99.90;;;;;;5002771;28;20124;-62
2023/03/17 04:12:26;;;;;;;3.95;2.22;;;8.30;99.90;;;;;;5004294;28;20117;-62
2023/03/17 04:14:52;;;;;;;6.78;2.80;;;8.30;99.90;;;;;;5004811;28;20718;-62
2023/03/17 04:17:18;;;;;;;3.72;2.08;;;8.30;99.90;;;;;;5003365;28;20041;-62
2023/03/17 04:19:43;;;;;;;3.58;2.33;;;8.20;99.90;;;;;;5003921;28;20449;-62
2023/03/17 04:22:11;;;;;;;4.20;2.13;;;8.20;99.90;;;;;;5004019;28;20520;-62
2023/03/17 04:24:37;;;;;;;4.82;2.50;;;8.20;99.90;;;;;;4985371;28;20049;-62
2023/03/17 04:27:02;;;;;;;4.57;2.30;;;8.20;99.90;;;;;;5001576;28;20034;-62
2023/03/17 04:29:29;;;;;;;6.05;2.47;;;8.20;99.90;;;;;;5004442;28;20030;-62
2023/03/17 04:31:55;;;;;;;2.80;2.05;;;8.20;99.90;;;;;;5003289;28;20334;-62
2023/03/17 04:34:21;;;;;;;3.42;2.10;;;8.20;99.90;;;;;;5001808;28;20132;-62
2023/03/17 04:36:47;;;;;;;5.55;2.30;;;8.30;99.90;;;;;;4985620;28;20030;-62
2023/03/17 04:39:14;;;;;;;5.18;2.28;;;8.30;99.90;;;;;;4985725;28;20107;-62
2023/03/17 04:41:40;;;;;;;5.70;2.40;;;8.20;99.90;;;;;;5002932;28;20038;-62
2023/03/17 04:44:06;;;;;;;6.00;2.20;;;8.30;99.90;;;;;;5003327;28;20048;-62
2023/03/17 04:46:33;;;;;;;4.78;2.25;;;8.30;99.90;;;;;;5001332;28;20497;-62
2023/03/17 04:48:59;;;;;;;3.08;2.35;;;8.30;99.90;;;;;;5000945;28;20042;-63
2023/03/17 04:51:25;;;;;;;7.20;2.30;;;8.40;99.90;;;;;;5002852;28;20559;-62
2023/03/17 04:53:51;;;;;;;3.83;2.28;;;8.40;99.90;;;;;;5003323;28;20093;-62
2023/03/17 04:56:17;;;;;;;3.67;2.13;;;8.40;99.90;;;;;;5000541;28;20380;-62
2023/03/17 04:58:42;;;;;;;5.25;2.30;;;8.40;99.90;;;;;;4984836;28;20034;-62
2023/03/17 05:01:08;;;;;;;4.82;2.55;;;8.30;99.90;;;;;;5003066;28;20038;-62
2023/03/17 05:03:34;;;;;;;4.10;2.45;;;8.30;99.90;;;;;;5003215;28;20025;-62
2023/03/17 05:06:02;;;;;;;4.90;2.35;;;8.30;99.90;;;;;;5002897;28;20867;-62
2023/03/17 05:08:28;;;;;;;7.82;2.50;;;8.30;99.90;;;;;;5003500;28;20457;-62
2023/03/17 05:10:55;;;;;;;5.10;2.30;;;8.30;99.90;;;;;;5001546;28;20061;-62
2023/03/17 05:13:21;;;;;;;4.75;2.70;;;8.30;99.90;;;;;;4985449;28;20040;-62
2023/03/17 05:15:49;;;;;;;4.65;2.30;;;8.30;99.90;;;;;;5003351;28;20497;-62
2023/03/17 05:18:17;;;;;;;4.82;2.60;;;8.30;99.90;;;;;;4984277;28;20049;-62
2023/03/17 05:20:42;;;;;;;4.55;2.60;;;8.30;99.90;;;;;;5003052;28;20053;-62
2023/03/17 05:23:08;;;;;;;4.63;2.65;;;8.20;99.90;;;;;;5003266;28;20064;-62
2023/03/17 05:25:34;;;;;;;4.88;2.67;;;8.20;99.90;;;;;;4998044;28;20031;-62
2023/03/17 05:28:00;;;;;;;4.55;2.83;;;8.20;99.90;;;;;;5002524;28;20045;-62
2023/03/17 05:30:26;;;;;;;6.07;2.65;;;8.20;99.90;;;;;;5002422;28;20053;-62
2023/03/17 05:32:52;;;;;;;4.88;2.50;;;8.20;99.90;;;;;;5003269;28;20030;-62
2023/03/17 05:35:17;;;;;;;5.55;2.78;;;8.20;99.90;;;;;;5002950;28;20044;-62
2023/03/17 05:37:43;;;;;;;4.22;2.55;;;8.20;99.90;;;;;;5003005;28;20049;-62
2023/03/17 05:40:11;;;;;;;5.53;2.70;;;8.10;99.90;;;;;;5000865;28;20109;-62
2023/03/17 05:42:37;;;;;;;6.25;2.88;;;8.10;99.90;;;;;;5003117;28;20405;-62
2023/03/17 05:45:04;;;;;;;4.72;2.70;;;8.20;99.90;;;;;;4986256;28;20441;-62
2023/03/17 05:47:31;;;;;;;5.35;2.65;;;8.20;99.90;;;;;;5002815;28;20030;-62
2023/03/17 05:49:57;;;;;;;5.03;2.53;;;8.20;99.90;;;;;;5003146;28;20527;-62
2023/03/17 05:52:23;;;;;;;5.22;2.72;;;8.20;99.90;;;;;;5002280;28;20140;-62
2023/03/17 05:54:51;;;;;;;6.78;2.67;;;8.20;99.90;;;;;;5005420;28;20125;-62
2023/03/17 05:57:16;;;;;;;3.72;2.42;;;8.20;99.90;;;;;;5006097;28;20024;-62
2023/03/17 05:59:42;;;;;;;6.75;3.08;;;8.20;99.90;;;;;;5006640;28;20030;-62
2023/03/17 06:02:10;;;;;;;5.28;2.72;;;8.10;99.90;;;;;;5006551;28;20046;-62
2023/03/17 06:04:36;;;;;;;5.43;3.00;;;8.20;99.90;;;;;;5006219;28;20046;-62
2023/03/17 06:07:01;;;;;;;5.30;2.90;;;8.30;99.90;;;;;;5000312;28;20482;-56
2023/03/17 06:09:27;;;;;;;6.95;2.63;;;8.20;99.90;;;;;;5005445;28;20033;-62
2023/03/17 06:11:52;;;;;;;4.63;2.72;;;8.20;99.90;;;;;;5006145;28;20053;-63
2023/03/17 06:14:18;;;;;;;5.00;2.80;;;8.30;99.90;;;;;;5005926;28;20049;-63
2023/03/17 06:16:44;;;;;;;4.90;2.67;;;8.40;99.90;;;;;;5006195;28;20058;-62
2023/03/17 06:19:09;;;;;;;4.80;2.63;;;8.40;99.90;;;;;;5007318;28;20044;-62
2023/03/17 06:21:35;;;;;;;4.07;2.42;;;8.40;99.90;;;;;;4984304;28;20616;-62
2023/03/17 06:24:01;;;;;;;5.38;3.08;;;8.40;99.90;;;;;;5004092;28;20119;-62
2023/03/17 06:26:27;;;;;;;8.85;3.08;;;8.40;99.90;;;;;;5009134;28;20030;-62
2023/03/17 06:28:52;;;;;;;6.47;2.88;;;8.40;99.90;;;;;;5006224;28;20041;-62
2023/03/17 06:31:18;;;;;;;4.57;2.80;;;8.40;99.90;;;;;;5009229;28;20199;-62
2023/03/17 06:33:43;;;;;;;6.32;2.95;;;8.40;99.90;;;;;;5005599;28;20044;-62
2023/03/17 06:36:09;;;;;;;4.10;2.70;;;8.50;99.90;;;;;;5004789;28;20370;-62
2023/03/17 06:38:35;;;;;;;4.65;2.70;;;8.60;99.90;;;;;;5006227;28;20211;-63
2023/03/17 06:41:00;;;;;;;5.32;2.70;;;8.60;99.90;;;;;;5004350;28;20085;-62
2023/03/17 06:43:26;;;;;;;5.75;2.90;;;8.60;99.90;;;;;;5003093;28;20219;-63
2023/03/17 06:45:52;;;;;;;5.88;2.78;;;8.70;99.90;;;;;;4999729;28;20029;-62
2023/03/17 06:48:18;;;;;;;5.18;2.92;;;8.70;99.90;;;;;;4999989;28;20030;-62
2023/03/17 06:50:46;;;;;;;8.60;2.92;;;8.70;99.90;;;;;;4986916;28;20042;-62
2023/03/17 06:53:12;;;;;;;4.38;2.72;;;8.70;99.90;;;;;;5001299;28;20080;-62
2023/03/17 06:55:37;;;;;;;10.98;3.13;;;8.80;99.90;;;;;;5004290;28;20034;-62
2023/03/17 06:58:03;;;;;;;7.40;3.17;;;8.80;99.90;;;;;;5006246;28;20038;-64
2023/03/17 07:00:29;;;;;;;6.78;3.20;;;8.90;99.90;;;;;;5006443;28;21062;-65
2023/03/17 07:02:55;;;;;;;8.40;2.65;;;9.00;99.90;;;;;;5005143;28;20066;-66
2023/03/17 07:05:21;;;;;;;4.55;2.88;;;9.00;99.90;;;;;;5004942;28;20461;-64
2023/03/17 07:07:48;;;;;;;7.55;2.95;;;9.00;99.90;;;;;;4981636;28;20034;-65
2023/03/17 07:10:14;;;;;;;7.20;3.15;;;9.10;99.90;;;;;;5003977;28;20048;-64
2023/03/17 07:12:41;;;;;;;5.97;2.83;;;9.20;99.90;;;;;;4983279;28;20041;-66
2023/03/17 07:15:08;;;;;;;6.45;2.88;;;9.30;99.90;;;;;;5001359;28;20046;-64
2023/03/17 07:17:34;;;;;;;6.20;3.40;;;9.30;99.90;;;;;;4994884;28;20036;-66
2023/03/17 07:19:59;;;;;;;6.07;3.00;;;9.30;99.90;;;;;;4998925;28;20053;-65
2023/03/17 07:22:25;;;;;;;5.82;3.00;;;9.40;99.90;;;;;;5004778;28;20123;-64
2023/03/17 07:24:52;;;;;;;6.68;3.38;;;9.50;99.90;;;;;;4997922;28;20041;-64
2023/03/17 07:27:17;;;;;;;5.88;3.00;;;9.60;99.90;;;;;;5003650;28;20030;-64
2023/03/17 07:29:43;;;;;;;3.72;2.35;;;9.60;99.90;;;;;;4989158;28;20052;-66
2023/03/17 07:32:09;;;;;;;6.85;2.65;;;9.70;99.90;;;;;;5004831;28;20050;-64
2023/03/17 07:34:35;;;;;;;5.63;2.85;;;9.80;99.90;;;;;;5003558;28;20050;-64
2023/03/17 07:37:01;;;;;;;8.00;2.40;;;9.90;99.90;;;;;;5005255;28;20023;-64
2023/03/17 07:39:27;;;;;;;5.00;2.58;;;9.80;99.90;;;;;;4996164;28;20430;-64
2023/03/17 07:41:54;;;;;;;8.23;2.70;;;9.90;99.90;;;;;;5003513;28;20033;-64
2023/03/17 07:44:21;;;;;;;4.30;2.58;;;10.00;99.90;;;;;;5004786;28;20053;-64
2023/03/17 07:46:47;;;;;;;5.40;2.58;;;10.00;99.90;;;;;;5004740;28;20456;-65
2023/03/17 07:49:13;;;;;;;4.95;2.90;;;10.00;99.90;;;;;;5003900;28;20125;-64
2023/03/17 07:51:41;;;;;;;6.07;2.72;;;10.10;99.90;;;;;;5004994;28;20034;-64
2023/03/17 07:54:08;;;;;;;6.57;2.58;;;10.10;99.90;;;;;;5002247;28;20054;-63
2023/03/17 07:56:34;;;;;;;4.88;2.72;;;10.10;99.90;;;;;;4981131;28;20058;-64
2023/03/17 07:59:00;;;;;;;6.22;2.90;;;10.20;99.90;;;;;;4998050;28;20038;-64
2023/03/17 08:01:26;;;;;;;4.88;2.78;;;10.10;99.90;;;;;;4988185;28;20045;-64
2023/03/17 08:03:52;;;;;;;5.47;3.10;;;10.10;99.90;;;;;;5001895;28;20746;-64
2023/03/17 08:06:18;;;;;;;5.68;3.03;;;10.10;99.90;;;;;;5000297;28;20095;-64
2023/03/17 08:08:44;;;;;;;5.43;3.20;;;10.20;99.90;;;;;;5004433;28;20415;-64
2023/03/17 08:11:11;;;;;;;5.68;2.70;;;10.20;99.90;;;;;;4999771;28;20129;-64
2023/03/17 08:13:36;;;;;;;4.75;2.60;;;10.30;99.90;;;;;;4999887;28;20045;-64
2023/03/17 08:16:02;;;;;;;4.38;2.60;;;10.30;99.90;;;;;;5004923;28;20100;-63
2023/03/17 08:18:27;;;;;;;4.22;2.97;;;10.40;99.90;;;;;;5004513;28;20030;-63
2023/03/17 08:20:53;;;;;;;6.18;3.00;;;10.40;99.90;;;;;;5000859;28;20045;-64
2023/03/17 08:23:20;;;;;;;5.30;2.72;;;10.40;99.90;;;;;;5007473;28;20560;-63
2023/03/17 08:25:46;;;;;;;7.35;2.60;;;10.40;99.90;;;;;;5003720;28;20030;-64
2023/03/17 08:28:14;;;;;;;4.63;2.97;;;10.40;99.90;;;;;;5005641;28;20037;-63
2023/03/17 08:30:41;;;;;;;6.65;3.20;;;10.50;99.90;;;;;;5007910;28;20042;-64
2023/03/17 08:33:07;;;;;;;6.75;2.80;;;10.50;99.90;;;;;;4986442;28;20041;-62
2023/03/17 08:35:34;;;;;;;4.28;2.85;;;10.50;99.90;;;;;;5000414;28;20045;-64
2023/03/17 08:38:00;;;;;;;6.35;2.78;;;10.50;99.90;;;;;;5002660;28;20053;-64
2023/03/17 08:40:25;;;;;;;6.50;3.13;;;10.60;99.90;;;;;;4996828;28;20629;-64
2023/03/17 08:42:51;;;;;;;3.33;2.58;;;10.70;99.90;;;;;;5003331;28;20108;-64
2023/03/17 08:45:17;;;;;;;6.57;2.92;;;10.80;99.90;;;;;;5002910;28;20030;-64
2023/03/17 08:47:44;;;;;;;5.15;3.03;;;10.90;99.90;;;;;;5001342;28;20030;-64
2023/03/17 08:50:15;;;;;;;8.10;3.05;;;11.00;99.90;;;;;;4993140;28;20053;-64
2023/03/17 08:52:41;;;;;;;5.15;3.17;;;11.10;99.90;;;;;;5000364;28;20513;-64
2023/03/17 08:55:07;;;;;;;10.15;3.25;;;11.20;99.90;;;;;;5001027;28;20045;-64
2023/03/17 08:57:36;;;;;;;50.47;37.22;;;11.20;99.90;;;;;;4998965;28;20409;-65
2023/03/17 09:00:09;;;;;;;46.35;30.17;;;11.40;99.90;;;;;;5001711;28;20105;-63
2023/03/17 09:02:36;;;;;;;6.65;3.10;;;11.50;99.90;;;;;;4998469;28;20123;-64
2023/03/17 09:05:04;;;;;;;5.93;2.70;;;11.60;99.90;;;;;;4996704;28;20482;-63
2023/03/17 09:07:29;;;;;;;6.13;2.70;;;11.80;99.90;;;;;;4996802;28;20638;-63
2023/03/17 09:09:55;;;;;;;4.72;2.53;;;11.90;99.90;;;;;;5000922;28;20030;-64
2023/03/17 09:12:21;;;;;;;4.72;2.70;;;12.00;99.90;;;;;;4984738;28;22299;-64
2023/03/17 09:14:47;;;;;;;4.57;2.80;;;12.10;99.90;;;;;;4986207;28;20480;-64
2023/03/17 09:17:14;;;;;;;4.65;3.13;;;12.20;99.90;;;;;;5001789;28;20049;-64
2023/03/17 09:19:40;;;;;;;8.02;3.22;;;12.30;99.90;;;;;;5000676;28;20030;-64
2023/03/17 09:22:06;;;;;;;6.82;3.20;;;12.30;99.90;;;;;;5002099;28;20095;-64
2023/03/17 09:24:32;;;;;;;8.75;3.17;;;12.40;99.90;;;;;;5002359;28;20034;-64
2023/03/17 09:27:00;;;;;;;6.85;3.05;;;12.40;99.90;;;;;;5000871;28;20458;-64
2023/03/17 09:29:26;;;;;;;7.85;3.40;;;12.30;99.90;;;;;;4999002;28;20139;-64
2023/03/17 09:31:54;;;;;;;7.00;2.70;;;12.40;99.90;;;;;;5000345;28;20125;-65
2023/03/17 09:34:20;;;;;;;8.85;3.10;;;12.40;99.90;;;;;;4995819;28;20038;-65
2023/03/17 09:36:45;;;;;;;6.28;3.03;;;12.50;99.90;;;;;;5001638;28;20041;-65
2023/03/17 09:39:11;;;;;;;10.93;3.08;;;12.50;99.90;;;;;;5002232;28;20026;-64
2023/03/17 09:41:51;;;;;;;5.60;2.92;;;12.60;99.90;;;;;;5000365;28;20100;-64
2023/03/17 09:44:51;;;;;;;6.28;2.78;;;12.70;99.90;;;;;;5001656;28;20042;-64
2023/03/17 09:47:37;;;;;;;6.63;2.95;;;12.80;99.90;;;;;;4999794;28;20034;-64
2023/03/17 09:50:17;;;;;;;5.63;2.80;;;12.80;99.90;;;;;;5004253;28;20037;-64
2023/03/17 09:52:44;;;;;;;4.90;2.95;;;12.70;99.90;;;;;;4999653;28;20554;-65
2023/03/17 09:55:21;;;;;;;6.07;3.10;;;12.80;99.90;;;;;;4978405;28;20057;-64
2023/03/17 09:57:50;;;;;;;3.65;2.35;;;12.90;99.90;;;;;;5002130;28;20670;-65
2023/03/17 10:00:21;;;;;;;6.60;2.58;;;13.00;99.90;;;;;;5009251;28;20493;-64
2023/03/17 10:02:47;;;;;;;7.93;3.03;;;13.10;99.90;;;;;;5007598;28;20049;-64
2023/03/17 10:05:22;;;;;;;8.27;2.75;;;13.10;99.90;;;;;;4987144;28;20037;-64
2023/03/17 10:07:47;;;;;;;6.85;3.10;;;13.10;99.90;;;;;;4995757;28;20397;-64
2023/03/17 10:10:19;;;;;;;6.15;2.78;;;13.30;99.90;;;;;;4995477;28;20046;-64
2023/03/17 10:13:08;;;;;;;4.30;2.65;;;13.30;99.90;;;;;;4986738;28;20029;-64
2023/03/17 10:15:43;;;;;;;4.97;2.95;;;13.40;99.90;;;;;;5002844;28;20570;-64
2023/03/17 10:18:15;;;;;;;5.78;2.97;;;13.40;99.90;;;;;;5005681;28;20026;-64
2023/03/17 10:20:49;;;;;;;5.90;2.85;;;13.40;99.90;;;;;;5008399;28;20030;-64
2023/03/17 10:23:19;;;;;;;6.45;2.78;;;13.40;99.90;;;;;;5005877;28;20117;-64
2023/03/17 10:25:45;;;;;;;6.25;3.10;;;13.60;99.90;;;;;;5003833;28;20504;-64
2023/03/17 10:28:27;;;;;;;7.60;3.10;;;13.60;99.90;;;;;;5004116;28;20028;-65
2023/03/17 10:30:53;;;;;;;8.43;4.60;;;13.60;99.90;;;;;;5001781;28;20049;-64
2023/03/17 10:33:20;;;;;;;7.07;2.88;;;13.70;99.90;;;;;;4994489;28;20041;-63
2023/03/17 10:35:46;;;;;;;6.75;2.95;;;13.70;99.90;;;;;;5006292;28;20395;-64
2023/03/17 10:38:17;;;;;;;5.45;3.00;;;13.70;99.90;;;;;;5000622;28;20422;-64
2023/03/17 10:40:46;;;;;;;8.55;2.80;;;13.80;99.90;;;;;;5002403;28;20050;-64
2023/03/17 10:43:20;;;;;;;8.13;3.20;;;13.70;99.90;;;;;;5006277;28;20117;-63
2023/03/17 10:45:57;;;;;;;10.85;3.28;;;13.80;99.90;;;;;;5003281;28;20685;-65
2023/03/17 10:48:23;;;;;;;9.45;3.20;;;13.80;99.90;;;;;;5004607;28;20160;-63
2023/03/17 10:50:49;;;;;;;6.30;2.95;;;13.80;99.90;;;;;;5004756;28;20575;-64
2023/03/17 10:53:26;;;;;;;11.30;3.28;;;13.80;99.90;;;;;;5004747;28;20034;-63
2023/03/17 10:55:55;;;;;;;4.57;2.78;;;13.90;99.90;;;;;;5001353;28;20037;-65
2023/03/17 10:58:47;;;;;;;8.35;2.92;;;13.80;99.90;;;;;;5004000;28;20456;-64
2023/03/17 11:01:33;;;;;;;7.03;2.60;;;13.80;99.90;;;;;;4999480;28;20045;-64
2023/03/17 11:04:01;;;;;;;6.53;3.20;;;13.90;99.90;;;;;;5008354;28;20515;-65
2023/03/17 11:06:40;;;;;;;6.93;3.05;;;13.90;99.90;;;;;;5005565;28;20038;-65
2023/03/17 11:09:08;;;;;;;6.03;3.22;;;13.90;99.90;;;;;;5000746;28;20661;-64
2023/03/17 11:11:48;;;;;;;6.20;2.97;;;13.90;99.90;;;;;;5003971;28;20461;-64
2023/03/17 11:14:17;;;;;;;5.70;2.88;;;14.00;99.90;;;;;;5009114;28;20113;-64
2023/03/17 11:17:00;;;;;;;6.90;2.90;;;14.10;99.90;;;;;;5001680;28;20509;-64
2023/03/17 11:19:50;;;;;;;5.88;3.30;;;14.20;99.90;;;;;;4988219;28;20026;-64
2023/03/17 11:22:37;;;;;;;8.55;3.10;;;14.40;99.90;;;;;;5004490;28;20053;-63
2023/03/17 11:25:13;;;;;;;8.57;3.22;;;15.00;99.90;;;;;;4986879;28;20042;-63
2023/03/17 11:28:15;;;;;;;5.93;2.67;;;14.50;99.90;;;;;;5004247;28;20045;-63
2023/03/17 11:30:51;;;;;;;7.47;3.20;;;14.50;99.90;;;;;;5010500;28;20038;-64
2023/03/17 11:33:39;;;;;;;6.40;2.90;;;14.70;99.90;;;;;;5008385;28;20045;-64
2023/03/17 11:36:25;;;;;;;5.55;2.95;;;14.80;99.90;;;;;;4996504;28;20536;-63
2023/03/17 11:39:11;;;;;;;8.10;2.92;;;15.00;99.90;;;;;;5004107;28;20120;-64
2023/03/17 11:41:59;;;;;;;9.40;3.00;;;15.00;99.90;;;;;;5002620;28;20041;-63
2023/03/17 11:44:57;;;;;;;7.60;2.90;;;15.10;99.90;;;;;;5003724;28;20136;-64
2023/03/17 11:47:30;;;;;;;7.05;2.78;;;15.20;99.90;;;;;;5001955;28;20034;-63
2023/03/17 11:50:11;;;;;;;4.55;2.67;;;15.30;99.90;;;;;;5004066;28;20065;-63
2023/03/17 11:52:48;;;;;;;6.93;2.65;;;15.40;99.90;;;;;;5010780;28;20050;-63
2023/03/17 11:55:41;;;;;;;6.93;2.75;;;15.60;99.90;;;;;;5006805;28;20034;-63
2023/03/17 11:58:30;;;;;;;7.53;2.92;;;15.50;99.90;;;;;;5009371;28;20022;-63
2023/03/17 12:00:59;;;;;;;5.90;2.78;;;15.50;99.90;;;;;;4993048;28;20031;-63
2023/03/17 12:03:33;;;;;;;6.00;2.90;;;15.80;99.90;;;;;;5012624;28;20129;-63
2023/03/17 12:06:10;;;;;;;8.05;2.70;;;15.70;99.90;;;;;;5005704;28;20373;-65
2023/03/17 12:08:44;;;;;;;5.45;2.90;;;15.80;99.90;;;;;;4994116;28;20072;-63
2023/03/17 12:11:25;;;;;;;7.63;3.15;;;15.80;99.90;;;;;;5008332;28;20532;-63
2023/03/17 12:13:58;;;;;;;6.47;3.10;;;15.90;99.90;;;;;;5003366;28;20192;-66
2023/03/17 12:16:29;;;;;;;7.30;2.83;;;15.70;99.90;;;;;;5002451;28;20437;-66
2023/03/17 12:19:35;;;;;;;6.25;2.63;;;15.70;99.90;;;;;;5003470;28;20117;-66
2023/03/17 12:22:20;;;;;;;8.70;2.85;;;15.80;99.90;;;;;;5009280;28;20438;-66
2023/03/17 12:25:16;;;;;;;5.55;2.67;;;15.80;99.90;;;;;;5007387;28;20035;-66
2023/03/17 12:27:53;;;;;;;7.78;2.53;;;15.80;99.90;;;;;;4998263;28;20046;-67
2023/03/17 12:30:29;;;;;;;12.05;2.75;;;15.70;99.90;;;;;;4978112;28;20039;-66
2023/03/17 12:33:03;;;;;;;8.57;3.17;;;16.00;99.90;;;;;;4985160;28;20029;-63
2023/03/17 12:35:35;;;;;;;6.40;2.75;;;16.70;99.90;;;;;;4982749;28;20185;-64
2023/03/17 12:38:09;;;;;;;6.87;2.70;;;16.00;99.90;;;;;;4987169;28;20410;-64
2023/03/17 12:40:38;;;;;;;7.10;2.78;;;16.00;99.90;;;;;;5004661;28;20509;-63
2023/03/17 12:43:29;;;;;;;6.40;2.50;;;16.20;99.90;;;;;;5010354;28;20637;-63
2023/03/17 12:46:10;;;;;;;5.07;2.42;;;16.20;99.90;;;;;;5001731;28;20470;-64
2023/03/17 12:49:01;;;;;;;7.25;2.45;;;16.20;99.90;;;;;;5002175;28;20045;-64
2023/03/17 12:52:00;;;;;;;5.70;2.80;;;16.20;99.90;;;;;;5005961;28;20047;-63
2023/03/17 12:54:30;;;;;;;6.45;2.63;;;16.10;99.90;;;;;;5004473;28;20037;-63
2023/03/17 12:57:12;;;;;;;6.75;2.65;;;16.20;99.90;;;;;;5001619;28;20037;-63
2023/03/17 12:59:41;;;;;;;4.68;2.47;;;16.30;99.90;;;;;;5002219;28;20045;-63
2023/03/17 13:02:37;;;;;;;6.10;2.78;;;16.30;99.90;;;;;;5006388;28;20061;-63
2023/03/17 13:05:14;;;;;;;8.05;2.38;;;16.20;99.90;;;;;;5000690;28;20157;-63